Time;durP1;ratioP1;P1;durP2;ratioP2;P2;SDS_P1;SDS_P2;PMS_P1;PMS_P2;Temp;Humidity;BMP_temperature;BMP_pressure;BME280_temperature;BME280_humidity;BME280_pressure;Samples;Min_cycle;Max_cycle;Signal;HPM_P1;HPM_P2
2021/12/27 00:00:16;;;;;;;17.77;14.00;;;3.90;99.90;;;;;;4994122;28;20250;-69
2021/12/27 00:02:47;;;;;;;19.60;14.73;;;3.80;99.90;;;;;;4995137;28;20207;-69
2021/12/27 00:05:16;;;;;;;19.30;14.60;;;3.80;99.90;;;;;;5018724;28;20190;-72
2021/12/27 00:07:48;;;;;;;19.67;15.80;;;3.70;99.90;;;;;;5018439;28;20216;-70
2021/12/27 00:10:15;;;;;;;18.43;14.40;;;3.90;99.90;;;;;;5009110;28;20199;-69
2021/12/27 00:12:43;;;;;;;18.10;14.77;;;4.00;99.90;;;;;;5000197;28;20225;-71
2021/12/27 00:15:11;;;;;;;18.83;14.40;;;4.00;99.90;;;;;;5032221;28;20584;-69
2021/12/27 00:17:39;;;;;;;19.10;14.13;;;3.90;99.90;;;;;;4994677;28;20234;-70
2021/12/27 00:20:07;;;;;;;18.27;15.13;;;3.80;99.90;;;;;;4978670;28;20225;-71
2021/12/27 00:22:36;;;;;;;17.00;13.67;;;3.80;99.90;;;;;;5011474;28;20204;-70
2021/12/27 00:25:04;;;;;;;19.37;15.23;;;3.80;99.90;;;;;;4995491;28;20200;-71
2021/12/27 00:27:32;;;;;;;18.83;14.80;;;3.80;99.90;;;;;;5016787;28;20233;-71
2021/12/27 00:29:59;;;;;;;17.03;12.93;;;3.80;99.90;;;;;;5001211;28;20193;-70
2021/12/27 00:32:27;;;;;;;17.33;13.50;;;3.90;99.90;;;;;;5012681;28;20200;-70
2021/12/27 00:34:54;;;;;;;16.50;13.30;;;4.00;99.90;;;;;;4998291;28;20208;-70
2021/12/27 00:37:21;;;;;;;18.70;14.63;;;4.00;99.90;;;;;;4987193;28;20216;-70
2021/12/27 00:39:50;;;;;;;17.77;13.57;;;4.00;99.90;;;;;;5019400;28;20274;-70
2021/12/27 00:42:17;;;;;;;16.93;13.67;;;4.00;99.90;;;;;;5027383;28;20185;-69
2021/12/27 00:44:45;;;;;;;18.40;14.00;;;4.00;99.90;;;;;;4980969;28;20216;-70
2021/12/27 00:47:12;;;;;;;18.23;14.53;;;3.90;99.90;;;;;;4997669;28;20224;-71
2021/12/27 00:49:40;;;;;;;16.17;13.33;;;3.80;99.90;;;;;;4982742;28;20206;-70
2021/12/27 00:52:07;;;;;;;17.57;13.47;;;3.70;99.90;;;;;;4998200;28;20203;-71
2021/12/27 00:54:35;;;;;;;17.53;13.83;;;3.50;99.90;;;;;;4997969;28;20612;-69
2021/12/27 00:57:04;;;;;;;16.93;13.40;;;3.50;99.90;;;;;;4984009;28;20234;-70
2021/12/27 00:59:31;;;;;;;17.53;13.40;;;3.50;99.90;;;;;;4998324;28;20698;-70
2021/12/27 01:01:58;;;;;;;17.67;13.70;;;3.60;99.90;;;;;;4997441;28;20216;-70
2021/12/27 01:04:26;;;;;;;17.37;13.23;;;3.50;99.90;;;;;;4991187;28;20204;-70
2021/12/27 01:06:54;;;;;;;16.77;13.50;;;3.50;99.90;;;;;;4996505;28;20573;-70
2021/12/27 01:09:31;;;;;;;18.83;14.37;;;3.50;99.90;;;;;;5007471;28;20207;-69
2021/12/27 01:12:11;;;;;;;16.50;13.43;;;3.40;99.90;;;;;;4992930;28;20534;-70
2021/12/27 01:14:43;;;;;;;18.97;13.63;;;3.30;99.90;;;;;;4991275;28;20681;-72
2021/12/27 01:17:12;;;;;;;15.67;13.23;;;3.40;99.90;;;;;;5010877;28;20219;-70
2021/12/27 01:19:39;;;;;;;17.37;12.83;;;3.40;99.90;;;;;;4998402;28;20215;-70
2021/12/27 01:22:07;;;;;;;16.50;13.57;;;3.50;99.90;;;;;;5003815;28;20197;-71
2021/12/27 01:24:34;;;;;;;18.03;13.77;;;3.50;99.90;;;;;;4996139;28;20205;-69
2021/12/27 01:27:02;;;;;;;18.00;13.90;;;3.60;99.90;;;;;;4993847;28;20223;-71
2021/12/27 01:29:30;;;;;;;19.23;14.03;;;3.60;99.90;;;;;;4992774;28;20203;-70
2021/12/27 01:31:59;;;;;;;19.00;14.13;;;3.70;99.90;;;;;;5008995;28;20198;-70
2021/12/27 01:34:27;;;;;;;16.30;13.63;;;3.70;99.90;;;;;;5005338;28;20194;-70
2021/12/27 01:36:56;;;;;;;16.57;12.93;;;3.70;99.90;;;;;;4994002;28;20219;-70
2021/12/27 01:39:24;;;;;;;17.43;13.90;;;3.80;99.90;;;;;;4993683;28;20779;-70
2021/12/27 01:41:51;;;;;;;16.67;13.77;;;3.70;99.90;;;;;;4995081;28;20211;-70
2021/12/27 01:44:19;;;;;;;19.43;14.07;;;3.80;99.90;;;;;;4992609;28;20211;-70
2021/12/27 01:46:46;;;;;;;17.60;13.30;;;3.60;99.90;;;;;;4994770;28;20224;-73
2021/12/27 01:49:15;;;;;;;15.40;12.90;;;3.60;99.90;;;;;;4984911;28;20567;-70
2021/12/27 01:51:42;;;;;;;16.90;13.43;;;3.60;99.90;;;;;;4987961;28;20202;-70
2021/12/27 01:54:10;;;;;;;16.27;13.17;;;3.60;99.90;;;;;;4991470;28;20210;-70
2021/12/27 01:56:38;;;;;;;17.93;13.97;;;3.70;99.90;;;;;;5007925;28;20225;-70
2021/12/27 01:59:05;;;;;;;15.67;12.87;;;3.70;99.90;;;;;;4994029;28;20215;-70
2021/12/27 02:01:32;;;;;;;16.03;12.87;;;3.70;99.90;;;;;;5008218;28;20219;-71
2021/12/27 02:04:00;;;;;;;16.30;12.67;;;3.80;99.90;;;;;;5017394;28;20547;-69
2021/12/27 02:06:28;;;;;;;14.83;11.83;;;3.90;99.90;;;;;;4996333;28;20239;-74
2021/12/27 02:08:56;;;;;;;15.93;12.37;;;4.00;99.90;;;;;;4984427;28;20212;-70
2021/12/27 02:11:23;;;;;;;18.60;12.87;;;4.00;99.90;;;;;;4992581;28;20203;-69
2021/12/27 02:13:50;;;;;;;15.33;12.67;;;4.00;99.90;;;;;;4988209;28;20670;-70
2021/12/27 02:16:21;;;;;;;17.90;13.63;;;3.90;99.90;;;;;;5006219;28;20224;-69
2021/12/27 02:18:50;;;;;;;15.97;12.73;;;3.80;99.90;;;;;;4984839;28;20200;-69
2021/12/27 02:21:19;;;;;;;16.67;13.00;;;3.90;99.90;;;;;;4995462;28;20230;-70
2021/12/27 02:23:48;;;;;;;16.17;13.10;;;4.00;99.90;;;;;;4998140;28;20192;-70
2021/12/27 02:26:16;;;;;;;16.67;14.00;;;4.00;99.90;;;;;;5008798;28;20230;-69
2021/12/27 02:28:43;;;;;;;15.13;12.83;;;3.90;99.90;;;;;;4995496;28;20199;-70
2021/12/27 02:31:11;;;;;;;13.43;11.10;;;4.10;99.90;;;;;;4999256;28;20204;-72
2021/12/27 02:33:48;;;;;;;13.43;11.43;;;4.30;99.90;;;;;;5006520;28;20713;-70
2021/12/27 02:36:16;;;;;;;15.13;12.73;;;4.30;99.90;;;;;;5014058;28;20219;-70
2021/12/27 02:38:46;;;;;;;14.53;11.33;;;4.30;99.90;;;;;;4999212;28;20194;-72
2021/12/27 02:41:14;;;;;;;12.73;10.23;;;4.40;99.90;;;;;;5002052;28;20214;-72
2021/12/27 02:43:43;;;;;;;13.20;11.10;;;4.40;99.90;;;;;;4992926;28;20214;-71
2021/12/27 02:46:13;;;;;;;13.63;11.30;;;4.50;99.90;;;;;;5017531;28;20210;-71
2021/12/27 02:48:44;;;;;;;13.00;10.57;;;4.40;99.90;;;;;;4983700;28;20200;-70
2021/12/27 02:51:12;;;;;;;11.87;9.60;;;4.40;99.90;;;;;;5000609;28;20221;-71
2021/12/27 02:53:39;;;;;;;12.63;10.90;;;4.40;99.90;;;;;;5006253;28;20266;-70
2021/12/27 02:56:09;;;;;;;12.03;9.80;;;4.40;99.90;;;;;;4988564;28;20671;-70
2021/12/27 02:58:37;;;;;;;10.60;8.63;;;4.40;99.90;;;;;;4992780;28;20213;-71
2021/12/27 03:01:07;;;;;;;8.50;7.53;;;4.60;99.90;;;;;;5006203;28;20221;-70
2021/12/27 03:03:35;;;;;;;9.87;8.60;;;4.60;99.90;;;;;;4985523;28;20582;-71
2021/12/27 03:06:03;;;;;;;9.33;8.00;;;4.70;99.90;;;;;;5007768;28;20211;-70
2021/12/27 03:08:32;;;;;;;8.47;7.57;;;4.70;99.90;;;;;;4986961;28;20215;-70
2021/12/27 03:11:00;;;;;;;7.60;6.33;;;4.80;99.90;;;;;;5004076;28;20188;-70
2021/12/27 03:13:30;;;;;;;7.57;6.30;;;4.90;99.90;;;;;;5005570;28;20232;-71
2021/12/27 03:16:00;;;;;;;10.03;7.80;;;4.90;99.90;;;;;;4993448;28;20202;-71
2021/12/27 03:18:28;;;;;;;7.40;6.03;;;4.90;99.90;;;;;;4989390;28;20198;-71
2021/12/27 03:20:56;;;;;;;6.80;5.77;;;5.00;99.90;;;;;;5008863;28;20225;-71
2021/12/27 03:23:23;;;;;;;6.50;5.43;;;5.00;99.90;;;;;;5002314;28;20201;-71
2021/12/27 03:25:53;;;;;;;6.87;5.67;;;5.00;99.90;;;;;;4989886;28;20202;-71
2021/12/27 03:28:20;;;;;;;6.47;5.67;;;5.00;99.90;;;;;;4987453;28;20749;-71
2021/12/27 03:30:50;;;;;;;6.13;5.20;;;5.10;99.90;;;;;;4985864;28;20201;-71
2021/12/27 03:33:21;;;;;;;5.90;5.30;;;5.10;99.90;;;;;;4992413;28;20201;-71
2021/12/27 03:36:09;;;;;;;7.03;5.80;;;5.10;99.90;;;;;;4983801;28;20254;-71
2021/12/27 03:38:39;;;;;;;6.63;5.93;;;5.10;99.90;;;;;;5009653;28;20209;-70
2021/12/27 03:41:09;;;;;;;6.73;5.93;;;5.10;99.90;;;;;;4995109;28;20233;-71
2021/12/27 03:43:36;;;;;;;8.17;6.40;;;5.10;99.90;;;;;;4988433;28;20229;-71
2021/12/27 03:46:05;;;;;;;6.80;5.73;;;5.10;99.90;;;;;;5012455;28;20209;-71
2021/12/27 03:48:44;;;;;;;6.80;6.10;;;5.10;99.90;;;;;;5010283;28;20199;-70
2021/12/27 03:51:12;;;;;;;8.10;7.30;;;5.10;99.90;;;;;;4993825;28;20205;-71
2021/12/27 03:53:39;;;;;;;8.47;7.23;;;5.00;99.90;;;;;;5011527;28;20210;-71
2021/12/27 03:56:08;;;;;;;9.37;8.20;;;5.10;99.90;;;;;;4991946;28;20204;-70
2021/12/27 03:58:47;;;;;;;10.13;7.90;;;5.00;99.90;;;;;;4986591;28;20560;-71
2021/12/27 04:01:17;;;;;;;13.37;9.90;;;5.10;99.90;;;;;;5002455;28;20207;-70
2021/12/27 04:03:47;;;;;;;12.47;9.57;;;5.00;99.90;;;;;;4988357;28;20218;-70
2021/12/27 04:06:35;;;;;;;11.47;9.63;;;5.00;99.90;;;;;;5002795;28;20200;-71
2021/12/27 04:09:03;;;;;;;11.57;9.70;;;5.00;99.90;;;;;;4984505;28;20209;-70
2021/12/27 04:11:31;;;;;;;10.90;8.47;;;5.00;99.90;;;;;;4993567;28;20210;-70
2021/12/27 04:13:59;;;;;;;10.97;9.37;;;5.00;99.90;;;;;;4991254;28;20227;-70
2021/12/27 04:16:28;;;;;;;7.97;7.07;;;5.00;99.90;;;;;;4998125;28;20222;-71
2021/12/27 04:18:55;;;;;;;8.20;7.23;;;5.00;99.90;;;;;;5005607;28;20683;-71
2021/12/27 04:21:22;;;;;;;9.03;7.83;;;5.00;99.90;;;;;;5013641;28;20232;-71
2021/12/27 04:23:50;;;;;;;7.23;6.43;;;5.00;99.90;;;;;;5005477;28;20194;-71
2021/12/27 04:26:17;;;;;;;6.07;5.40;;;5.10;99.90;;;;;;5009091;28;20226;-71
2021/12/27 04:28:44;;;;;;;6.57;5.70;;;5.10;99.90;;;;;;4990053;28;20197;-71
2021/12/27 04:31:14;;;;;;;7.57;5.90;;;5.10;99.90;;;;;;5005212;28;20185;-70
2021/12/27 04:33:43;;;;;;;7.20;6.23;;;5.20;99.90;;;;;;4999109;28;20210;-70
2021/12/27 04:36:11;;;;;;;6.87;6.00;;;5.20;99.90;;;;;;4996269;28;20202;-71
2021/12/27 04:38:39;;;;;;;6.83;6.10;;;5.20;99.90;;;;;;4984489;28;20210;-73
2021/12/27 04:41:07;;;;;;;8.33;6.93;;;5.20;99.90;;;;;;5005278;28;20222;-70
2021/12/27 04:43:35;;;;;;;7.37;6.67;;;5.10;99.90;;;;;;5012073;28;20202;-71
2021/12/27 04:46:02;;;;;;;8.00;6.97;;;5.20;99.90;;;;;;4994123;28;20195;-70
2021/12/27 04:48:30;;;;;;;7.43;6.33;;;5.10;99.90;;;;;;4984528;28;20207;-70
2021/12/27 04:50:58;;;;;;;7.73;6.93;;;5.20;99.90;;;;;;5009832;28;20209;-70
2021/12/27 04:53:36;;;;;;;9.43;7.80;;;5.10;99.90;;;;;;5011181;28;20194;-70
2021/12/27 04:56:04;;;;;;;12.97;9.53;;;5.00;99.90;;;;;;4992638;28;20202;-70
2021/12/27 04:58:31;;;;;;;10.30;8.13;;;5.00;99.90;;;;;;4989079;28;20196;-70
2021/12/27 05:00:59;;;;;;;8.90;8.00;;;5.00;99.90;;;;;;4993151;28;20202;-69
2021/12/27 05:03:26;;;;;;;12.73;9.60;;;5.10;99.90;;;;;;4994578;28;20196;-70
2021/12/27 05:06:09;;;;;;;10.07;8.63;;;5.10;99.90;;;;;;4995871;28;20203;-70
2021/12/27 05:08:37;;;;;;;9.13;8.17;;;5.10;99.90;;;;;;5008330;28;20211;-71
2021/12/27 05:11:04;;;;;;;11.17;8.53;;;5.10;99.90;;;;;;4984502;28;20203;-70
2021/12/27 05:13:33;;;;;;;10.63;8.43;;;5.20;99.90;;;;;;4993756;28;20214;-71
2021/12/27 05:16:02;;;;;;;10.10;8.10;;;5.20;99.90;;;;;;5019475;28;20197;-70
2021/12/27 05:18:29;;;;;;;10.87;9.03;;;5.20;99.90;;;;;;4996678;28;20210;-70
2021/12/27 05:20:57;;;;;;;9.73;8.57;;;5.20;99.90;;;;;;5002146;28;20213;-70
2021/12/27 05:23:25;;;;;;;9.53;8.23;;;5.30;99.90;;;;;;5008795;28;20211;-70
2021/12/27 05:25:53;;;;;;;8.10;7.10;;;5.30;99.90;;;;;;4978478;28;20207;-70
2021/12/27 05:28:20;;;;;;;8.10;7.30;;;5.30;99.90;;;;;;4982371;28;20237;-71
2021/12/27 05:30:48;;;;;;;6.90;6.10;;;5.30;99.90;;;;;;5000246;28;20688;-70
2021/12/27 05:33:16;;;;;;;7.40;6.13;;;5.40;99.90;;;;;;4978146;28;20199;-70
2021/12/27 05:35:43;;;;;;;7.33;6.60;;;5.40;99.90;;;;;;4985757;28;20207;-71
2021/12/27 05:38:26;;;;;;;7.83;6.77;;;5.40;99.90;;;;;;5022058;28;20716;-71
2021/12/27 05:40:54;;;;;;;7.37;6.17;;;5.30;99.90;;;;;;4996432;28;20196;-70
2021/12/27 05:43:21;;;;;;;7.50;6.70;;;5.40;99.90;;;;;;4997083;28;20227;-70
2021/12/27 05:45:48;;;;;;;7.10;6.40;;;5.40;99.90;;;;;;5014930;28;20680;-71
2021/12/27 05:48:16;;;;;;;6.80;6.10;;;5.40;99.90;;;;;;4988198;28;20231;-70
2021/12/27 05:50:44;;;;;;;6.50;5.77;;;5.40;99.90;;;;;;4999498;28;20206;-70
2021/12/27 05:53:12;;;;;;;6.73;6.03;;;5.40;99.90;;;;;;4997146;28;20195;-71
2021/12/27 05:55:40;;;;;;;6.60;5.90;;;5.50;99.90;;;;;;4997241;28;20206;-71
2021/12/27 05:58:08;;;;;;;7.43;6.63;;;5.40;99.90;;;;;;5011259;28;20589;-70
2021/12/27 06:00:36;;;;;;;7.20;6.50;;;5.40;99.90;;;;;;5006322;28;20198;-70
2021/12/27 06:03:03;;;;;;;6.83;6.10;;;5.50;99.90;;;;;;4996549;28;20210;-70
2021/12/27 06:05:31;;;;;;;6.80;5.93;;;5.60;99.90;;;;;;4997259;28;20206;-72
2021/12/27 06:08:55;;;;;;;6.73;6.00;;;5.60;99.90;;;;;;5013498;28;20218;-70
2021/12/27 06:11:29;;;;;;;5.97;5.40;;;5.60;99.90;;;;;;4986341;28;20210;-70
2021/12/27 06:13:56;;;;;;;4.27;3.87;;;6.20;99.90;;;;;;5018281;28;20656;-70
2021/12/27 06:16:25;;;;;;;4.90;4.47;;;6.70;99.90;;;;;;5003186;28;20218;-71
2021/12/27 06:18:53;;;;;;;5.53;4.67;;;6.80;99.90;;;;;;4987958;28;20206;-71
2021/12/27 06:21:20;;;;;;;6.23;5.63;;;7.30;99.90;;;;;;4997965;28;20195;-71
2021/12/27 06:23:56;;;;;;;5.17;4.77;;;6.80;99.90;;;;;;4991490;28;20215;-72
2021/12/27 06:26:24;;;;;;;5.40;4.90;;;6.30;99.90;;;;;;5011176;28;20223;-70
2021/12/27 06:28:52;;;;;;;6.13;5.53;;;6.00;99.90;;;;;;4995629;28;20207;-70
2021/12/27 06:31:20;;;;;;;6.50;5.70;;;5.90;99.90;;;;;;5014115;28;20187;-70
2021/12/27 06:33:48;;;;;;;5.93;5.33;;;5.80;99.90;;;;;;5010593;28;20546;-71
2021/12/27 06:36:29;;;;;;;6.33;5.73;;;5.80;99.90;;;;;;4997663;28;20199;-70
2021/12/27 06:38:59;;;;;;;7.10;6.07;;;5.80;99.90;;;;;;4994815;28;20207;-70
2021/12/27 06:41:28;;;;;;;6.90;6.20;;;5.70;99.90;;;;;;5018581;28;20263;-71
2021/12/27 06:43:57;;;;;;;7.13;6.40;;;5.60;99.90;;;;;;4993392;28;20220;-71
2021/12/27 06:46:36;;;;;;;7.97;6.60;;;5.60;99.90;;;;;;5003777;28;20206;-71
2021/12/27 06:49:04;;;;;;;6.97;6.27;;;5.60;99.90;;;;;;4990524;28;20218;-71
2021/12/27 06:51:31;;;;;;;7.37;5.77;;;5.60;99.90;;;;;;5011608;28;20206;-70
2021/12/27 06:53:59;;;;;;;6.53;5.93;;;5.50;99.90;;;;;;5001359;28;20532;-70
2021/12/27 06:56:26;;;;;;;6.87;6.17;;;5.60;99.90;;;;;;5013046;28;20229;-71
2021/12/27 06:58:53;;;;;;;6.87;5.43;;;5.60;99.90;;;;;;4991891;28;20211;-70
2021/12/27 07:01:22;;;;;;;6.63;6.03;;;5.60;99.90;;;;;;4988760;28;20211;-70
2021/12/27 07:04:08;;;;;;;8.00;6.07;;;5.60;99.90;;;;;;4988326;28;20208;-70
2021/12/27 07:06:36;;;;;;;6.43;5.80;;;5.70;99.90;;;;;;4987208;28;20236;-70
2021/12/27 07:09:04;;;;;;;6.03;5.40;;;5.70;99.90;;;;;;4993795;28;20577;-70
2021/12/27 07:11:32;;;;;;;7.50;5.83;;;5.70;99.90;;;;;;5004461;28;20198;-69
2021/12/27 07:13:59;;;;;;;7.37;6.20;;;5.60;99.90;;;;;;4991295;28;20791;-72
2021/12/27 07:16:28;;;;;;;7.33;6.20;;;5.60;99.90;;;;;;5018158;28;20218;-70
2021/12/27 07:18:55;;;;;;;6.27;5.37;;;5.50;99.90;;;;;;5010074;28;20199;-70
2021/12/27 07:21:22;;;;;;;6.30;5.60;;;5.50;99.90;;;;;;5013276;28;20207;-70
2021/12/27 07:23:50;;;;;;;7.67;6.37;;;5.50;99.90;;;;;;4992172;28;20225;-69
2021/12/27 07:26:17;;;;;;;6.80;6.00;;;5.50;99.90;;;;;;5010993;28;20201;-71
2021/12/27 07:28:44;;;;;;;7.37;5.87;;;5.50;99.90;;;;;;5007386;28;20189;-69
2021/12/27 07:31:12;;;;;;;7.70;5.53;;;5.50;99.90;;;;;;4990895;28;20217;-70
2021/12/27 07:33:41;;;;;;;7.37;6.23;;;5.50;99.90;;;;;;5008036;28;20202;-73
2021/12/27 07:36:12;;;;;;;8.77;5.97;;;5.50;99.90;;;;;;5025842;28;20201;-72
2021/12/27 07:38:42;;;;;;;7.77;6.10;;;6.50;99.90;;;;;;4987713;28;20635;-74
2021/12/27 07:41:17;;;;;;;7.03;5.50;;;6.40;99.90;;;;;;4986352;28;20207;-77
2021/12/27 07:43:45;;;;;;;6.53;5.93;;;6.00;99.90;;;;;;5010369;28;20220;-73
2021/12/27 07:46:12;;;;;;;6.40;5.63;;;5.80;99.90;;;;;;5012271;28;20200;-74
2021/12/27 07:48:48;;;;;;;7.23;6.53;;;5.70;99.90;;;;;;4980599;28;20211;-73
2021/12/27 07:51:16;;;;;;;6.43;5.67;;;5.70;99.90;;;;;;4985277;28;20188;-73
2021/12/27 07:53:43;;;;;;;7.20;6.13;;;5.70;99.90;;;;;;4994300;28;20198;-73
2021/12/27 07:56:10;;;;;;;7.43;6.17;;;5.70;99.90;;;;;;4994459;28;20200;-73
2021/12/27 07:58:38;;;;;;;9.20;6.80;;;5.70;99.90;;;;;;4989194;28;20211;-75
2021/12/27 08:01:05;;;;;;;8.30;6.67;;;5.70;99.90;;;;;;5009165;28;20703;-73
2021/12/27 08:03:33;;;;;;;9.00;6.97;;;5.80;99.90;;;;;;4994841;28;20233;-73
2021/12/27 08:06:02;;;;;;;8.73;6.27;;;5.90;99.90;;;;;;4994485;28;20217;-74
2021/12/27 08:08:29;;;;;;;8.77;6.83;;;5.90;99.90;;;;;;4982551;28;20218;-74
2021/12/27 08:10:58;;;;;;;7.77;6.63;;;5.90;99.90;;;;;;4991214;28;20202;-74
2021/12/27 08:13:26;;;;;;;9.33;7.53;;;5.90;99.90;;;;;;4994676;28;20547;-73
2021/12/27 08:15:53;;;;;;;7.03;6.33;;;5.90;99.90;;;;;;5011476;28;20228;-73
2021/12/27 08:18:20;;;;;;;8.30;6.53;;;6.00;99.90;;;;;;5000572;28;20627;-75
2021/12/27 08:20:48;;;;;;;8.23;6.50;;;6.10;99.90;;;;;;4995166;28;20203;-73
2021/12/27 08:23:27;;;;;;;7.57;6.13;;;6.10;99.90;;;;;;4992955;28;20218;-73
2021/12/27 08:25:54;;;;;;;8.37;7.17;;;6.20;99.90;;;;;;5006692;28;20580;-73
2021/12/27 08:28:22;;;;;;;8.03;7.20;;;6.10;99.90;;;;;;4985265;28;20227;-73
2021/12/27 08:30:49;;;;;;;9.17;7.17;;;6.20;99.90;;;;;;4994999;28;20209;-74
2021/12/27 08:33:23;;;;;;;7.57;6.40;;;6.20;99.90;;;;;;4995013;28;20203;-73
2021/12/27 08:35:50;;;;;;;7.10;6.20;;;6.30;99.90;;;;;;4994717;28;20199;-73
2021/12/27 08:38:18;;;;;;;8.37;6.83;;;6.30;99.90;;;;;;4982694;28;20226;-74
2021/12/27 08:40:48;;;;;;;8.97;7.50;;;6.30;99.90;;;;;;4992440;28;20210;-73
2021/12/27 08:43:15;;;;;;;7.87;7.07;;;6.40;99.90;;;;;;4992396;28;20224;-73
2021/12/27 08:45:43;;;;;;;7.87;6.77;;;6.40;99.90;;;;;;4995006;28;20199;-73
2021/12/27 08:48:10;;;;;;;8.43;6.97;;;6.30;99.90;;;;;;4987477;28;20235;-73
2021/12/27 08:50:38;;;;;;;8.20;6.93;;;6.40;99.90;;;;;;4992954;28;20200;-73
2021/12/27 08:53:06;;;;;;;7.53;5.80;;;6.40;99.90;;;;;;4994438;28;20202;-74
2021/12/27 08:55:34;;;;;;;7.60;6.57;;;6.50;99.90;;;;;;4997049;28;20214;-73
2021/12/27 08:58:04;;;;;;;7.00;5.93;;;6.60;99.90;;;;;;4994048;28;20728;-73
2021/12/27 09:00:32;;;;;;;7.40;5.67;;;6.60;99.90;;;;;;5006555;28;20207;-73
2021/12/27 09:02:59;;;;;;;9.43;6.87;;;6.60;99.90;;;;;;5002339;28;20198;-73
2021/12/27 09:05:27;;;;;;;7.77;5.90;;;6.40;99.90;;;;;;5012528;28;20196;-75
2021/12/27 09:07:54;;;;;;;6.43;5.30;;;6.40;99.90;;;;;;4992346;28;20222;-75
2021/12/27 09:13:45;;;;;;;6.73;5.47;;;6.40;99.90;;;;;;4997560;28;20203;-75
2021/12/27 09:16:13;;;;;;;6.53;5.67;;;6.50;99.90;;;;;;5017028;28;20561;-75
2021/12/27 09:18:41;;;;;;;6.23;5.63;;;6.50;99.90;;;;;;4995521;28;20207;-75
2021/12/27 09:21:09;;;;;;;6.67;5.57;;;6.60;99.90;;;;;;4978501;28;20215;-75
2021/12/27 09:23:36;;;;;;;6.83;5.67;;;6.60;99.90;;;;;;4978012;28;20226;-75
2021/12/27 09:26:04;;;;;;;7.97;5.43;;;6.60;99.90;;;;;;4994252;28;20532;-75
2021/12/27 09:28:32;;;;;;;7.73;5.37;;;6.70;99.90;;;;;;4992245;28;20207;-75
2021/12/27 09:31:01;;;;;;;5.77;4.70;;;6.70;99.90;;;;;;4996922;28;20215;-75
2021/12/27 09:33:29;;;;;;;5.83;4.87;;;6.70;99.90;;;;;;5005320;28;20568;-76
2021/12/27 09:35:56;;;;;;;5.33;4.60;;;6.80;99.90;;;;;;5016984;28;20206;-75
2021/12/27 09:38:23;;;;;;;5.73;4.97;;;6.90;99.90;;;;;;5018796;28;20230;-75
2021/12/27 09:40:51;;;;;;;5.37;4.77;;;6.90;99.90;;;;;;5015092;28;20669;-75
2021/12/27 09:43:18;;;;;;;5.73;4.83;;;7.00;99.90;;;;;;4996973;28;20218;-75
2021/12/27 09:45:46;;;;;;;5.70;5.10;;;7.00;99.90;;;;;;5014886;28;20657;-75
2021/12/27 09:48:15;;;;;;;4.97;4.47;;;7.20;99.90;;;;;;4995276;28;20230;-75
2021/12/27 09:50:45;;;;;;;5.47;4.83;;;7.20;99.90;;;;;;4993045;28;20208;-75
2021/12/27 09:53:13;;;;;;;5.60;4.67;;;7.20;99.90;;;;;;4993816;28;20340;-75
2021/12/27 09:55:41;;;;;;;6.17;4.43;;;7.20;99.90;;;;;;4994363;28;20214;-75
2021/12/27 09:58:08;;;;;;;7.30;4.07;;;7.30;99.90;;;;;;5001359;28;20222;-75
2021/12/27 10:00:45;;;;;;;4.97;4.40;;;7.30;99.90;;;;;;4995398;28;20560;-75
2021/12/27 10:03:13;;;;;;;5.17;4.50;;;7.30;99.90;;;;;;4998050;28;20658;-75
2021/12/27 10:05:42;;;;;;;5.70;4.30;;;7.40;99.90;;;;;;5014261;28;20215;-75
2021/12/27 10:08:09;;;;;;;4.70;4.10;;;7.50;99.90;;;;;;4995666;28;20227;-75
2021/12/27 10:10:37;;;;;;;4.53;3.63;;;7.40;99.90;;;;;;5020606;28;20191;-75
2021/12/27 10:13:07;;;;;;;5.53;4.07;;;7.40;99.90;;;;;;5016354;28;20206;-75
2021/12/27 10:15:37;;;;;;;6.23;3.97;;;7.40;99.90;;;;;;5016279;28;20202;-75
2021/12/27 10:18:09;;;;;;;5.23;3.67;;;7.50;99.90;;;;;;4999933;28;20247;-74
2021/12/27 10:20:37;;;;;;;4.57;3.77;;;7.60;99.90;;;;;;5005859;28;20200;-75
2021/12/27 10:23:06;;;;;;;4.17;3.60;;;7.60;99.90;;;;;;4996937;28;20230;-75
2021/12/27 10:25:33;;;;;;;4.97;3.93;;;7.60;99.90;;;;;;5014114;28;20210;-75
2021/12/27 10:28:47;;;;;;;5.13;3.43;;;7.40;99.90;;;;;;5001783;28;20239;-75
2021/12/27 10:31:15;;;;;;;4.80;3.67;;;7.40;99.90;;;;;;4993596;28;20211;-75
2021/12/27 10:33:42;;;;;;;3.70;3.37;;;7.30;99.90;;;;;;4999261;28;20214;-75
2021/12/27 10:36:09;;;;;;;5.50;3.70;;;7.30;99.90;;;;;;5009318;28;20215;-75
2021/12/27 10:38:40;;;;;;;4.47;3.67;;;7.30;99.90;;;;;;5011702;28;20207;-75
2021/12/27 10:41:09;;;;;;;3.70;3.20;;;7.30;99.90;;;;;;5013850;28;20202;-75
2021/12/27 10:43:56;;;;;;;4.17;3.17;;;7.30;99.90;;;;;;4995809;28;20203;-75
2021/12/27 10:46:23;;;;;;;3.63;3.27;;;7.30;99.90;;;;;;5014100;28;20617;-75
2021/12/27 10:48:56;;;;;;;3.97;3.57;;;7.30;99.90;;;;;;5009918;28;20207;-75
2021/12/27 10:51:24;;;;;;;4.70;3.50;;;7.50;99.90;;;;;;5012227;28;20210;-75
2021/12/27 10:54:08;;;;;;;4.10;3.27;;;7.40;99.90;;;;;;4992864;28;20227;-75
2021/12/27 10:56:50;;;;;;;4.30;3.63;;;7.40;99.90;;;;;;5005857;28;20215;-75
2021/12/27 10:59:36;;;;;;;3.90;3.50;;;7.40;99.90;;;;;;4976382;28;20674;-75
2021/12/27 11:02:11;;;;;;;5.17;3.70;;;7.40;99.90;;;;;;5021646;28;20656;-75
2021/12/27 11:05:14;;;;;;;3.87;3.20;;;7.40;99.90;;;;;;5014614;28;20215;-75
2021/12/27 11:08:05;;;;;;;4.30;3.73;;;7.60;99.90;;;;;;4983233;28;20227;-75
2021/12/27 11:10:36;;;;;;;4.37;3.20;;;7.60;99.90;;;;;;4990007;28;20199;-74
2021/12/27 11:13:06;;;;;;;3.87;3.00;;;7.80;99.90;;;;;;4995428;28;20226;-75
2021/12/27 11:15:49;;;;;;;5.00;3.53;;;7.90;99.90;;;;;;4995639;28;20200;-75
2021/12/27 11:18:16;;;;;;;3.67;3.20;;;8.00;99.90;;;;;;5008717;28;20219;-75
2021/12/27 11:20:46;;;;;;;3.83;3.13;;;8.10;99.90;;;;;;5012189;28;20199;-74
2021/12/27 11:23:15;;;;;;;4.20;3.07;;;8.20;99.90;;;;;;5011899;28;20211;-75
2021/12/27 11:26:24;;;;;;;5.20;3.23;;;8.10;99.90;;;;;;4994781;28;20227;-75
2021/12/27 11:28:52;;;;;;;3.20;2.90;;;8.20;99.90;;;;;;5012441;28;20199;-75
2021/12/27 11:31:28;;;;;;;4.40;3.40;;;8.20;99.90;;;;;;5012780;28;20211;-74
2021/12/27 11:33:57;;;;;;;4.10;3.27;;;8.30;99.90;;;;;;4989596;28;20195;-72
2021/12/27 11:36:26;;;;;;;3.37;2.93;;;8.30;99.90;;;;;;4986962;28;20215;-73
2021/12/27 11:38:53;;;;;;;3.70;2.90;;;8.30;99.90;;;;;;5010336;28;20195;-72
2021/12/27 11:41:35;;;;;;;3.50;2.87;;;8.30;99.90;;;;;;4991270;28;20198;-73
2021/12/27 11:44:07;;;;;;;3.63;2.80;;;8.40;99.90;;;;;;5014791;28;20202;-73
2021/12/27 11:46:58;;;;;;;3.43;2.90;;;8.40;99.90;;;;;;5006972;28;20219;-76
2021/12/27 11:49:52;;;;;;;2.73;2.53;;;8.60;99.90;;;;;;5009076;28;20203;-72
2021/12/27 11:56:10;;;;;;;2.40;2.20;;;8.80;99.90;;;;;;5017626;28;20176;-72
2021/12/27 11:58:42;;;;;;;4.30;3.27;;;8.90;99.90;;;;;;4990147;28;20208;-72
2021/12/27 12:01:42;;;;;;;3.00;2.70;;;9.10;99.90;;;;;;4992731;28;20203;-72
2021/12/27 12:04:29;;;;;;;2.73;2.43;;;9.10;99.90;;;;;;4985219;28;20211;-73
2021/12/27 12:06:56;;;;;;;2.53;2.33;;;9.10;99.90;;;;;;4993400;28;20223;-73
2021/12/27 12:09:24;;;;;;;3.23;2.53;;;9.10;99.90;;;;;;4992201;28;20199;-73
2021/12/27 12:12:01;;;;;;;2.60;2.40;;;9.20;99.90;;;;;;4994202;28;20207;-72
2021/12/27 12:14:32;;;;;;;3.23;2.20;;;9.10;99.90;;;;;;4993375;28;20211;-72
2021/12/27 12:17:03;;;;;;;2.73;2.47;;;9.10;99.90;;;;;;5013533;28;20223;-74
2021/12/27 12:19:42;;;;;;;2.60;2.40;;;9.00;99.90;;;;;;5003950;28;20207;-72
2021/12/27 12:22:34;;;;;;;2.50;2.30;;;9.00;99.90;;;;;;5012149;28;20197;-73
2021/12/27 12:25:13;;;;;;;2.73;2.53;;;9.10;99.90;;;;;;4984070;28;20211;-73
2021/12/27 12:27:52;;;;;;;3.80;3.13;;;9.20;99.90;;;;;;4985996;28;20227;-72
2021/12/27 12:30:21;;;;;;;3.20;2.73;;;9.20;99.90;;;;;;5013477;28;20550;-72
2021/12/27 12:33:03;;;;;;;2.83;2.23;;;9.20;99.90;;;;;;4998206;28;20230;-72
2021/12/27 12:35:36;;;;;;;3.03;2.40;;;9.20;99.90;;;;;;5006159;28;20196;-74
2021/12/27 12:38:53;;;;;;;2.53;2.33;;;9.10;99.90;;;;;;4988062;28;20231;-73
2021/12/27 12:41:20;;;;;;;2.67;2.43;;;9.00;99.90;;;;;;5005903;28;20200;-73
2021/12/27 12:43:50;;;;;;;2.47;2.27;;;9.00;99.90;;;;;;5000004;28;20203;-73
2021/12/27 12:46:36;;;;;;;2.60;2.30;;;9.00;99.90;;;;;;4996743;28;20216;-73
2021/12/27 12:49:06;;;;;;;2.30;2.10;;;9.00;99.90;;;;;;5007570;28;20206;-73
2021/12/27 12:51:36;;;;;;;2.63;2.43;;;9.10;99.90;;;;;;4995528;28;20211;-73
2021/12/27 12:54:07;;;;;;;2.43;1.97;;;9.20;99.90;;;;;;4983993;28;20211;-73
2021/12/27 12:56:37;;;;;;;2.23;2.00;;;9.40;99.90;;;;;;5013851;28;20617;-74
2021/12/27 12:59:05;;;;;;;2.40;2.20;;;9.50;99.90;;;;;;4997933;28;20199;-74
2021/12/27 13:01:34;;;;;;;2.43;2.00;;;9.50;99.90;;;;;;5010763;28;20187;-74
2021/12/27 13:04:01;;;;;;;2.60;2.40;;;9.70;99.90;;;;;;5011548;28;20192;-74
2021/12/27 13:06:45;;;;;;;2.80;2.30;;;9.70;99.90;;;;;;5015519;28;20239;-76
2021/12/27 13:09:16;;;;;;;2.03;1.93;;;9.70;99.90;;;;;;4991386;28;20200;-73
2021/12/27 13:11:45;;;;;;;2.13;1.93;;;9.70;99.90;;;;;;4997872;28;20195;-74
2021/12/27 13:14:12;;;;;;;2.27;2.07;;;9.50;99.90;;;;;;4997278;28;20218;-73
2021/12/27 13:16:41;;;;;;;2.57;2.37;;;9.40;99.90;;;;;;4992509;28;20207;-73